Airfield :







YOU CAN JOIN US ON...

 
LOGIN :

Register | Disclaimer

   EN    FR    IT 

 









Legend :    VFR   Marginal VFR   IFR   Intensive IFR   Very Intensive IFR
Visi :
Ceiling :
>= 8 km
>= 3000ft
5 to 8 km
1000 to 3000 ft
1500m to 5 km
500 to 1000 ft
800 to 1500m
200 to 500 ft
< 800m
< 200 ft
Symbols :   Thunderstorms  Fog  Heavy snow  Heavy precipitations  Wind > 20 kt







- Airport Elevation : 118 ft
- IATA code : YUL


CYUL - Montréal - Pierre-Elliott-Trudeau Int.

CURRENT METAR :
  • 210800Z 24004KT 15SM FEW090 15/13 A3016 RMK AC1 AC TR SLP216

EXPIRED METARs :
  • 210700Z 25004KT 15SM FEW090 16/13 A3016 RMK AC1 SLP215
  • 210600Z 24008KT 15SM BKN070 BKN090 18/14 A3015 RMK AC5AC2 SLP210 DENSITY ALT 300FT

TAF TAF CYUL
Valid from the 21 at 06:00 until the 22 at 06:00 UTC


210538Z 2106/2206 23008KT P6SM SCT050
FM210900 28005KT P6SM SCT040
BECMG 2113/2115 21010KT
FM211800 21010KT P6SM SKC
BECMG 2122/2124 18005KT RMK NXT FCST BY 210900Z
ATIS : ENG : +1 514-633-3037 FRA : +1 514-633-3034
No reported NOTAMs for that airfield.



MET'MAP, your aeronautical weather chart ! - Copyright ORBIFLY December 2007 - Disclaimer

ORBIFLY MET'MAP TEAM :

Programming & Development : Alexandra Zaïnal
Concept & Development : Baudouin d'Aumeries
Co-Development & Prog : Marc-Olivier Méhu
Technical & hardware support : Manuel Goepfert

Contact : metmap@orbifly.com




SOURCES & CREDITS :

   NOAA